sensor_id;sensor_type;location;lat;lon;timestamp;P1;durP1;ratioP1;P2;durP2;ratioP2
33327;SDS011;19692;52.998;9.116;2024-03-06T00:02:22;13.60;;;11.40;;
33327;SDS011;19692;52.998;9.116;2024-03-06T00:04:48;16.40;;;11.17;;
33327;SDS011;19692;52.998;9.116;2024-03-06T00:07:13;16.53;;;11.37;;
33327;SDS011;19692;52.998;9.116;2024-03-06T00:09:39;15.87;;;11.77;;
33327;SDS011;19692;52.998;9.116;2024-03-06T00:12:05;15.70;;;11.60;;
33327;SDS011;19692;52.998;9.116;2024-03-06T00:14:31;15.60;;;11.33;;
33327;SDS011;19692;52.998;9.116;2024-03-06T00:16:56;18.20;;;11.83;;
33327;SDS011;19692;52.998;9.116;2024-03-06T00:19:22;15.13;;;10.97;;
33327;SDS011;19692;52.998;9.116;2024-03-06T00:21:48;14.60;;;10.60;;
33327;SDS011;19692;52.998;9.116;2024-03-06T00:24:14;17.87;;;11.00;;
33327;SDS011;19692;52.998;9.116;2024-03-06T00:26:41;16.57;;;11.30;;
33327;SDS011;19692;52.998;9.116;2024-03-06T00:29:07;15.10;;;12.10;;
33327;SDS011;19692;52.998;9.116;2024-03-06T00:31:33;15.77;;;11.77;;
33327;SDS011;19692;52.998;9.116;2024-03-06T00:33:59;16.17;;;11.30;;
33327;SDS011;19692;52.998;9.116;2024-03-06T00:36:24;14.73;;;11.33;;
33327;SDS011;19692;52.998;9.116;2024-03-06T00:38:50;13.87;;;11.27;;
33327;SDS011;19692;52.998;9.116;2024-03-06T00:41:15;16.20;;;12.50;;
33327;SDS011;19692;52.998;9.116;2024-03-06T00:43:41;15.13;;;10.27;;
33327;SDS011;19692;52.998;9.116;2024-03-06T00:46:07;16.43;;;11.60;;
33327;SDS011;19692;52.998;9.116;2024-03-06T00:48:32;15.20;;;12.03;;
33327;SDS011;19692;52.998;9.116;2024-03-06T00:50:58;14.10;;;11.40;;
33327;SDS011;19692;52.998;9.116;2024-03-06T00:53:23;15.07;;;11.73;;
33327;SDS011;19692;52.998;9.116;2024-03-06T00:55:49;15.57;;;11.63;;
33327;SDS011;19692;52.998;9.116;2024-03-06T00:58:15;15.17;;;11.83;;
33327;SDS011;19692;52.998;9.116;2024-03-06T01:00:40;14.23;;;11.17;;
33327;SDS011;19692;52.998;9.116;2024-03-06T01:03:06;13.40;;;10.77;;
33327;SDS011;19692;52.998;9.116;2024-03-06T01:05:31;15.37;;;11.37;;
33327;SDS011;19692;52.998;9.116;2024-03-06T01:07:57;16.33;;;11.87;;
33327;SDS011;19692;52.998;9.116;2024-03-06T01:10:24;16.00;;;11.47;;
33327;SDS011;19692;52.998;9.116;2024-03-06T01:12:49;14.43;;;11.17;;
33327;SDS011;19692;52.998;9.116;2024-03-06T01:15:15;14.93;;;11.03;;
33327;SDS011;19692;52.998;9.116;2024-03-06T01:17:41;17.87;;;11.50;;
33327;SDS011;19692;52.998;9.116;2024-03-06T01:20:06;17.43;;;12.20;;
33327;SDS011;19692;52.998;9.116;2024-03-06T01:22:35;14.03;;;11.60;;
33327;SDS011;19692;52.998;9.116;2024-03-06T01:25:01;13.57;;;11.63;;
33327;SDS011;19692;52.998;9.116;2024-03-06T01:27:27;16.27;;;12.00;;
33327;SDS011;19692;52.998;9.116;2024-03-06T01:29:53;13.73;;;12.00;;
33327;SDS011;19692;52.998;9.116;2024-03-06T01:32:18;16.60;;;12.20;;
33327;SDS011;19692;52.998;9.116;2024-03-06T01:34:44;17.17;;;11.43;;
33327;SDS011;19692;52.998;9.116;2024-03-06T01:37:09;14.43;;;11.60;;
33327;SDS011;19692;52.998;9.116;2024-03-06T01:39:35;17.07;;;12.17;;
33327;SDS011;19692;52.998;9.116;2024-03-06T01:42:01;14.83;;;12.20;;
33327;SDS011;19692;52.998;9.116;2024-03-06T01:44:28;14.57;;;12.10;;
33327;SDS011;19692;52.998;9.116;2024-03-06T01:46:54;16.80;;;11.83;;
33327;SDS011;19692;52.998;9.116;2024-03-06T01:49:19;16.43;;;12.40;;
33327;SDS011;19692;52.998;9.116;2024-03-06T01:51:51;14.10;;;11.63;;
33327;SDS011;19692;52.998;9.116;2024-03-06T01:54:18;18.37;;;12.13;;
33327;SDS011;19692;52.998;9.116;2024-03-06T01:56:45;18.53;;;13.67;;
33327;SDS011;19692;52.998;9.116;2024-03-06T01:59:12;21.73;;;14.20;;
33327;SDS011;19692;52.998;9.116;2024-03-06T02:01:39;20.20;;;13.90;;
33327;SDS011;19692;52.998;9.116;2024-03-06T02:04:06;19.60;;;14.03;;
33327;SDS011;19692;52.998;9.116;2024-03-06T02:06:34;18.07;;;13.03;;
33327;SDS011;19692;52.998;9.116;2024-03-06T02:09:00;18.70;;;12.67;;
33327;SDS011;19692;52.998;9.116;2024-03-06T02:11:26;19.77;;;12.90;;
33327;SDS011;19692;52.998;9.116;2024-03-06T02:13:53;15.80;;;12.30;;
33327;SDS011;19692;52.998;9.116;2024-03-06T02:16:18;16.63;;;12.77;;
33327;SDS011;19692;52.998;9.116;2024-03-06T02:18:51;17.00;;;12.23;;
33327;SDS011;19692;52.998;9.116;2024-03-06T02:21:20;16.00;;;12.33;;
33327;SDS011;19692;52.998;9.116;2024-03-06T02:23:50;19.33;;;13.60;;
33327;SDS011;19692;52.998;9.116;2024-03-06T02:26:20;19.27;;;13.67;;
33327;SDS011;19692;52.998;9.116;2024-03-06T02:28:49;18.90;;;13.73;;
33327;SDS011;19692;52.998;9.116;2024-03-06T02:31:16;16.80;;;12.90;;
33327;SDS011;19692;52.998;9.116;2024-03-06T02:33:43;17.07;;;12.77;;
33327;SDS011;19692;52.998;9.116;2024-03-06T02:36:09;19.33;;;12.70;;
33327;SDS011;19692;52.998;9.116;2024-03-06T02:38:35;19.57;;;13.07;;
33327;SDS011;19692;52.998;9.116;2024-03-06T02:41:01;16.17;;;12.93;;
33327;SDS011;19692;52.998;9.116;2024-03-06T02:43:27;15.73;;;12.37;;
33327;SDS011;19692;52.998;9.116;2024-03-06T02:45:52;18.30;;;12.43;;
33327;SDS011;19692;52.998;9.116;2024-03-06T02:48:18;16.50;;;12.90;;
33327;SDS011;19692;52.998;9.116;2024-03-06T02:50:44;18.40;;;14.03;;
33327;SDS011;19692;52.998;9.116;2024-03-06T02:53:10;18.57;;;13.80;;
33327;SDS011;19692;52.998;9.116;2024-03-06T02:55:35;16.53;;;12.77;;
33327;SDS011;19692;52.998;9.116;2024-03-06T02:58:01;17.70;;;14.17;;
33327;SDS011;19692;52.998;9.116;2024-03-06T03:00:28;17.97;;;13.37;;
33327;SDS011;19692;52.998;9.116;2024-03-06T03:02:53;16.33;;;12.93;;
33327;SDS011;19692;52.998;9.116;2024-03-06T03:05:19;18.70;;;13.70;;
33327;SDS011;19692;52.998;9.116;2024-03-06T03:07:45;18.60;;;13.50;;
33327;SDS011;19692;52.998;9.116;2024-03-06T03:10:10;18.60;;;13.53;;
33327;SDS011;19692;52.998;9.116;2024-03-06T03:12:38;17.03;;;13.50;;
33327;SDS011;19692;52.998;9.116;2024-03-06T03:15:03;16.97;;;12.63;;
33327;SDS011;19692;52.998;9.116;2024-03-06T03:17:29;19.17;;;13.40;;
33327;SDS011;19692;52.998;9.116;2024-03-06T03:19:55;17.93;;;13.27;;
33327;SDS011;19692;52.998;9.116;2024-03-06T03:22:21;16.07;;;12.97;;
33327;SDS011;19692;52.998;9.116;2024-03-06T03:24:46;18.77;;;13.23;;
33327;SDS011;19692;52.998;9.116;2024-03-06T03:27:12;16.77;;;13.20;;
33327;SDS011;19692;52.998;9.116;2024-03-06T03:29:38;17.97;;;12.97;;
33327;SDS011;19692;52.998;9.116;2024-03-06T03:32:05;19.97;;;14.60;;
33327;SDS011;19692;52.998;9.116;2024-03-06T03:34:30;22.60;;;13.53;;
33327;SDS011;19692;52.998;9.116;2024-03-06T03:36:57;18.80;;;13.83;;
33327;SDS011;19692;52.998;9.116;2024-03-06T03:39:23;18.93;;;13.93;;
33327;SDS011;19692;52.998;9.116;2024-03-06T03:41:49;17.50;;;12.60;;
33327;SDS011;19692;52.998;9.116;2024-03-06T03:44:18;20.60;;;14.00;;
33327;SDS011;19692;52.998;9.116;2024-03-06T03:46:43;19.93;;;14.20;;
33327;SDS011;19692;52.998;9.116;2024-03-06T03:49:09;17.80;;;13.97;;
33327;SDS011;19692;52.998;9.116;2024-03-06T03:51:35;16.40;;;12.77;;
33327;SDS011;19692;52.998;9.116;2024-03-06T03:54:02;20.40;;;13.33;;
33327;SDS011;19692;52.998;9.116;2024-03-06T03:56:27;17.23;;;13.60;;
33327;SDS011;19692;52.998;9.116;2024-03-06T03:58:53;18.70;;;12.90;;
33327;SDS011;19692;52.998;9.116;2024-03-06T04:01:19;18.10;;;12.67;;
33327;SDS011;19692;52.998;9.116;2024-03-06T04:03:45;18.47;;;13.73;;
33327;SDS011;19692;52.998;9.116;2024-03-06T04:06:10;20.63;;;13.60;;
33327;SDS011;19692;52.998;9.116;2024-03-06T04:08:36;18.17;;;12.80;;
33327;SDS011;19692;52.998;9.116;2024-03-06T04:11:03;17.60;;;13.37;;
33327;SDS011;19692;52.998;9.116;2024-03-06T04:13:29;18.70;;;13.77;;
33327;SDS011;19692;52.998;9.116;2024-03-06T04:15:54;19.67;;;14.37;;
33327;SDS011;19692;52.998;9.116;2024-03-06T04:18:20;17.43;;;14.03;;
33327;SDS011;19692;52.998;9.116;2024-03-06T04:20:46;17.20;;;13.10;;
33327;SDS011;19692;52.998;9.116;2024-03-06T04:23:11;19.73;;;13.70;;
33327;SDS011;19692;52.998;9.116;2024-03-06T04:25:37;18.40;;;13.33;;
33327;SDS011;19692;52.998;9.116;2024-03-06T04:28:04;20.00;;;14.40;;
33327;SDS011;19692;52.998;9.116;2024-03-06T04:30:32;19.87;;;14.33;;
33327;SDS011;19692;52.998;9.116;2024-03-06T04:32:58;18.93;;;14.33;;
33327;SDS011;19692;52.998;9.116;2024-03-06T04:35:24;18.00;;;14.20;;
33327;SDS011;19692;52.998;9.116;2024-03-06T04:37:50;19.97;;;14.63;;
33327;SDS011;19692;52.998;9.116;2024-03-06T04:40:15;18.50;;;13.50;;
33327;SDS011;19692;52.998;9.116;2024-03-06T04:42:45;19.27;;;14.17;;
33327;SDS011;19692;52.998;9.116;2024-03-06T04:45:12;20.03;;;14.37;;
33327;SDS011;19692;52.998;9.116;2024-03-06T04:47:40;19.27;;;13.73;;
33327;SDS011;19692;52.998;9.116;2024-03-06T04:50:09;18.53;;;13.10;;
33327;SDS011;19692;52.998;9.116;2024-03-06T04:52:36;17.87;;;13.40;;
33327;SDS011;19692;52.998;9.116;2024-03-06T04:55:02;20.27;;;13.63;;
33327;SDS011;19692;52.998;9.116;2024-03-06T04:57:28;20.80;;;13.60;;
33327;SDS011;19692;52.998;9.116;2024-03-06T04:59:53;18.23;;;14.57;;
33327;SDS011;19692;52.998;9.116;2024-03-06T05:02:19;16.63;;;13.40;;
33327;SDS011;19692;52.998;9.116;2024-03-06T05:04:45;17.67;;;13.77;;
33327;SDS011;19692;52.998;9.116;2024-03-06T05:07:11;18.07;;;13.03;;
33327;SDS011;19692;52.998;9.116;2024-03-06T05:09:38;16.50;;;12.33;;
33327;SDS011;19692;52.998;9.116;2024-03-06T05:12:06;17.53;;;13.10;;
33327;SDS011;19692;52.998;9.116;2024-03-06T05:14:32;15.83;;;12.90;;
33327;SDS011;19692;52.998;9.116;2024-03-06T05:16:58;16.83;;;13.00;;
33327;SDS011;19692;52.998;9.116;2024-03-06T05:19:23;20.37;;;13.63;;
33327;SDS011;19692;52.998;9.116;2024-03-06T05:21:55;17.27;;;12.40;;
33327;SDS011;19692;52.998;9.116;2024-03-06T05:24:20;16.90;;;13.10;;
33327;SDS011;19692;52.998;9.116;2024-03-06T05:26:46;16.90;;;13.50;;
33327;SDS011;19692;52.998;9.116;2024-03-06T05:29:12;16.90;;;12.93;;
33327;SDS011;19692;52.998;9.116;2024-03-06T05:31:37;19.53;;;14.20;;
33327;SDS011;19692;52.998;9.116;2024-03-06T05:34:03;19.73;;;13.90;;
33327;SDS011;19692;52.998;9.116;2024-03-06T05:36:30;17.87;;;13.27;;
33327;SDS011;19692;52.998;9.116;2024-03-06T05:38:55;20.00;;;13.20;;
33327;SDS011;19692;52.998;9.116;2024-03-06T05:41:21;17.07;;;13.43;;
33327;SDS011;19692;52.998;9.116;2024-03-06T05:43:46;15.87;;;12.37;;
33327;SDS011;19692;52.998;9.116;2024-03-06T05:46:12;18.57;;;14.20;;
33327;SDS011;19692;52.998;9.116;2024-03-06T05:48:38;18.93;;;13.67;;
33327;SDS011;19692;52.998;9.116;2024-03-06T05:51:04;19.77;;;13.50;;
33327;SDS011;19692;52.998;9.116;2024-03-06T05:53:30;18.93;;;13.73;;
33327;SDS011;19692;52.998;9.116;2024-03-06T05:56:06;19.23;;;13.83;;
33327;SDS011;19692;52.998;9.116;2024-03-06T05:58:31;17.70;;;13.30;;
33327;SDS011;19692;52.998;9.116;2024-03-06T06:00:59;18.17;;;13.40;;
33327;SDS011;19692;52.998;9.116;2024-03-06T06:03:26;22.60;;;14.17;;
33327;SDS011;19692;52.998;9.116;2024-03-06T06:05:53;19.67;;;14.63;;
33327;SDS011;19692;52.998;9.116;2024-03-06T06:08:19;18.93;;;13.77;;
33327;SDS011;19692;52.998;9.116;2024-03-06T06:10:45;19.57;;;14.07;;
33327;SDS011;19692;52.998;9.116;2024-03-06T06:13:10;20.23;;;13.70;;
33327;SDS011;19692;52.998;9.116;2024-03-06T06:15:37;19.50;;;13.33;;
33327;SDS011;19692;52.998;9.116;2024-03-06T06:18:03;19.80;;;13.83;;
33327;SDS011;19692;52.998;9.116;2024-03-06T06:20:29;20.90;;;13.57;;
33327;SDS011;19692;52.998;9.116;2024-03-06T06:22:55;19.43;;;14.00;;
33327;SDS011;19692;52.998;9.116;2024-03-06T06:25:22;20.20;;;14.27;;
33327;SDS011;19692;52.998;9.116;2024-03-06T06:27:47;16.60;;;13.23;;
33327;SDS011;19692;52.998;9.116;2024-03-06T06:30:14;16.77;;;12.70;;
33327;SDS011;19692;52.998;9.116;2024-03-06T06:32:41;20.23;;;13.80;;
33327;SDS011;19692;52.998;9.116;2024-03-06T06:35:08;18.33;;;13.37;;
33327;SDS011;19692;52.998;9.116;2024-03-06T06:37:34;19.07;;;13.23;;
33327;SDS011;19692;52.998;9.116;2024-03-06T06:40:00;17.13;;;13.50;;
33327;SDS011;19692;52.998;9.116;2024-03-06T06:42:31;19.20;;;14.17;;
33327;SDS011;19692;52.998;9.116;2024-03-06T06:44:58;18.70;;;12.57;;
33327;SDS011;19692;52.998;9.116;2024-03-06T06:47:24;18.23;;;12.83;;
33327;SDS011;19692;52.998;9.116;2024-03-06T06:49:49;19.57;;;13.33;;
33327;SDS011;19692;52.998;9.116;2024-03-06T06:52:15;17.93;;;12.80;;
33327;SDS011;19692;52.998;9.116;2024-03-06T06:54:41;20.80;;;13.07;;
33327;SDS011;19692;52.998;9.116;2024-03-06T06:57:06;18.67;;;13.13;;
33327;SDS011;19692;52.998;9.116;2024-03-06T06:59:33;17.10;;;12.30;;
33327;SDS011;19692;52.998;9.116;2024-03-06T07:01:59;18.63;;;13.13;;
33327;SDS011;19692;52.998;9.116;2024-03-06T07:04:25;19.30;;;13.37;;
33327;SDS011;19692;52.998;9.116;2024-03-06T07:06:51;15.17;;;12.80;;
33327;SDS011;19692;52.998;9.116;2024-03-06T07:09:16;16.53;;;12.57;;
33327;SDS011;19692;52.998;9.116;2024-03-06T07:11:43;18.93;;;13.27;;
33327;SDS011;19692;52.998;9.116;2024-03-06T07:14:09;19.97;;;13.33;;
33327;SDS011;19692;52.998;9.116;2024-03-06T07:16:41;20.20;;;13.30;;
33327;SDS011;19692;52.998;9.116;2024-03-06T07:19:08;19.10;;;12.57;;
33327;SDS011;19692;52.998;9.116;2024-03-06T07:21:33;18.40;;;12.73;;
33327;SDS011;19692;52.998;9.116;2024-03-06T07:23:59;15.47;;;12.03;;
33327;SDS011;19692;52.998;9.116;2024-03-06T07:26:25;20.13;;;13.33;;
33327;SDS011;19692;52.998;9.116;2024-03-06T07:28:51;18.50;;;13.03;;
33327;SDS011;19692;52.998;9.116;2024-03-06T07:31:17;22.13;;;13.80;;
33327;SDS011;19692;52.998;9.116;2024-03-06T07:33:43;19.30;;;12.97;;
33327;SDS011;19692;52.998;9.116;2024-03-06T07:36:09;19.13;;;13.70;;
33327;SDS011;19692;52.998;9.116;2024-03-06T07:38:34;19.40;;;13.87;;
33327;SDS011;19692;52.998;9.116;2024-03-06T07:41:00;16.97;;;12.77;;
33327;SDS011;19692;52.998;9.116;2024-03-06T07:43:26;17.80;;;13.40;;
33327;SDS011;19692;52.998;9.116;2024-03-06T07:45:51;18.10;;;12.90;;
33327;SDS011;19692;52.998;9.116;2024-03-06T07:48:17;19.57;;;13.67;;
33327;SDS011;19692;52.998;9.116;2024-03-06T07:50:43;20.80;;;13.60;;
33327;SDS011;19692;52.998;9.116;2024-03-06T07:53:09;19.10;;;13.87;;
33327;SDS011;19692;52.998;9.116;2024-03-06T07:55:34;19.90;;;13.40;;
33327;SDS011;19692;52.998;9.116;2024-03-06T07:58:00;21.10;;;15.33;;
33327;SDS011;19692;52.998;9.116;2024-03-06T08:00:25;22.20;;;14.00;;
33327;SDS011;19692;52.998;9.116;2024-03-06T08:02:52;23.57;;;14.70;;
33327;SDS011;19692;52.998;9.116;2024-03-06T08:05:17;20.07;;;14.17;;
33327;SDS011;19692;52.998;9.116;2024-03-06T08:07:43;23.43;;;14.93;;
33327;SDS011;19692;52.998;9.116;2024-03-06T08:10:10;20.03;;;14.57;;
33327;SDS011;19692;52.998;9.116;2024-03-06T08:12:43;20.97;;;15.43;;
33327;SDS011;19692;52.998;9.116;2024-03-06T08:15:10;22.37;;;15.13;;
33327;SDS011;19692;52.998;9.116;2024-03-06T08:17:38;18.83;;;14.13;;
33327;SDS011;19692;52.998;9.116;2024-03-06T08:20:04;23.07;;;14.53;;
33327;SDS011;19692;52.998;9.116;2024-03-06T08:22:33;21.73;;;14.43;;
33327;SDS011;19692;52.998;9.116;2024-03-06T08:25:03;16.37;;;12.97;;
33327;SDS011;19692;52.998;9.116;2024-03-06T08:27:33;17.37;;;14.43;;
33327;SDS011;19692;52.998;9.116;2024-03-06T08:30:04;20.43;;;13.93;;
33327;SDS011;19692;52.998;9.116;2024-03-06T08:32:31;18.57;;;14.77;;
33327;SDS011;19692;52.998;9.116;2024-03-06T08:35:00;17.40;;;13.60;;
33327;SDS011;19692;52.998;9.116;2024-03-06T08:37:30;20.37;;;14.67;;
33327;SDS011;19692;52.998;9.116;2024-03-06T08:39:56;18.83;;;13.70;;
33327;SDS011;19692;52.998;9.116;2024-03-06T08:42:23;19.27;;;14.40;;
33327;SDS011;19692;52.998;9.116;2024-03-06T08:44:48;19.00;;;14.87;;
33327;SDS011;19692;52.998;9.116;2024-03-06T08:47:14;17.60;;;14.10;;
33327;SDS011;19692;52.998;9.116;2024-03-06T08:49:40;20.20;;;13.27;;
33327;SDS011;19692;52.998;9.116;2024-03-06T08:52:06;18.10;;;14.30;;
33327;SDS011;19692;52.998;9.116;2024-03-06T08:54:31;29.83;;;19.67;;
33327;SDS011;19692;52.998;9.116;2024-03-06T08:56:57;33.93;;;20.33;;
33327;SDS011;19692;52.998;9.116;2024-03-06T08:59:24;24.23;;;17.37;;
33327;SDS011;19692;52.998;9.116;2024-03-06T09:01:53;19.07;;;14.20;;
33327;SDS011;19692;52.998;9.116;2024-03-06T09:04:20;18.83;;;14.53;;
33327;SDS011;19692;52.998;9.116;2024-03-06T09:06:46;21.30;;;15.00;;
33327;SDS011;19692;52.998;9.116;2024-03-06T09:09:12;19.90;;;15.50;;
33327;SDS011;19692;52.998;9.116;2024-03-06T09:11:40;19.70;;;15.40;;
33327;SDS011;19692;52.998;9.116;2024-03-06T09:14:09;19.77;;;14.90;;
33327;SDS011;19692;52.998;9.116;2024-03-06T09:16:35;20.20;;;13.97;;
33327;SDS011;19692;52.998;9.116;2024-03-06T09:19:01;19.40;;;15.07;;
33327;SDS011;19692;52.998;9.116;2024-03-06T09:21:27;20.10;;;14.27;;
33327;SDS011;19692;52.998;9.116;2024-03-06T09:23:53;21.80;;;15.07;;
33327;SDS011;19692;52.998;9.116;2024-03-06T09:26:19;21.77;;;15.00;;
33327;SDS011;19692;52.998;9.116;2024-03-06T09:28:45;20.90;;;15.03;;
33327;SDS011;19692;52.998;9.116;2024-03-06T09:31:11;19.17;;;14.87;;
33327;SDS011;19692;52.998;9.116;2024-03-06T09:33:41;23.70;;;14.60;;
33327;SDS011;19692;52.998;9.116;2024-03-06T09:36:06;23.77;;;15.13;;
33327;SDS011;19692;52.998;9.116;2024-03-06T09:38:35;18.83;;;15.13;;
33327;SDS011;19692;52.998;9.116;2024-03-06T09:41:02;19.90;;;14.23;;
33327;SDS011;19692;52.998;9.116;2024-03-06T09:43:28;21.70;;;15.27;;
33327;SDS011;19692;52.998;9.116;2024-03-06T09:45:55;18.97;;;14.63;;
33327;SDS011;19692;52.998;9.116;2024-03-06T09:48:21;19.67;;;14.10;;
33327;SDS011;19692;52.998;9.116;2024-03-06T09:50:48;21.67;;;14.00;;
33327;SDS011;19692;52.998;9.116;2024-03-06T09:53:17;19.50;;;14.23;;
33327;SDS011;19692;52.998;9.116;2024-03-06T09:55:45;20.90;;;14.90;;
33327;SDS011;19692;52.998;9.116;2024-03-06T09:58:12;18.17;;;14.70;;
33327;SDS011;19692;52.998;9.116;2024-03-06T10:00:38;17.50;;;14.37;;
33327;SDS011;19692;52.998;9.116;2024-03-06T10:03:04;21.83;;;15.13;;
33327;SDS011;19692;52.998;9.116;2024-03-06T10:05:30;20.07;;;14.67;;
33327;SDS011;19692;52.998;9.116;2024-03-06T10:07:58;19.80;;;13.97;;
33327;SDS011;19692;52.998;9.116;2024-03-06T10:10:25;19.20;;;14.53;;
33327;SDS011;19692;52.998;9.116;2024-03-06T10:12:51;17.77;;;13.53;;
33327;SDS011;19692;52.998;9.116;2024-03-06T10:15:18;21.50;;;14.33;;
33327;SDS011;19692;52.998;9.116;2024-03-06T10:17:44;18.93;;;13.37;;
33327;SDS011;19692;52.998;9.116;2024-03-06T10:20:20;20.40;;;13.63;;
33327;SDS011;19692;52.998;9.116;2024-03-06T10:22:50;19.47;;;13.93;;
33327;SDS011;19692;52.998;9.116;2024-03-06T10:25:18;18.30;;;12.90;;
33327;SDS011;19692;52.998;9.116;2024-03-06T10:27:45;18.70;;;13.43;;
33327;SDS011;19692;52.998;9.116;2024-03-06T10:30:10;16.17;;;12.97;;
33327;SDS011;19692;52.998;9.116;2024-03-06T10:32:40;16.33;;;12.97;;
33327;SDS011;19692;52.998;9.116;2024-03-06T10:35:17;15.93;;;13.00;;
33327;SDS011;19692;52.998;9.116;2024-03-06T10:37:43;16.23;;;12.77;;
33327;SDS011;19692;52.998;9.116;2024-03-06T10:40:10;21.67;;;13.93;;
33327;SDS011;19692;52.998;9.116;2024-03-06T10:42:39;15.53;;;12.83;;
33327;SDS011;19692;52.998;9.116;2024-03-06T10:45:07;18.70;;;14.20;;
33327;SDS011;19692;52.998;9.116;2024-03-06T10:47:37;18.23;;;12.50;;
33327;SDS011;19692;52.998;9.116;2024-03-06T10:50:05;14.70;;;12.80;;
33327;SDS011;19692;52.998;9.116;2024-03-06T10:52:35;19.37;;;14.10;;
33327;SDS011;19692;52.998;9.116;2024-03-06T10:55:03;17.63;;;13.37;;
33327;SDS011;19692;52.998;9.116;2024-03-06T10:57:29;15.93;;;12.53;;
33327;SDS011;19692;52.998;9.116;2024-03-06T10:59:56;15.63;;;12.47;;
33327;SDS011;19692;52.998;9.116;2024-03-06T11:02:25;19.90;;;13.07;;
33327;SDS011;19692;52.998;9.116;2024-03-06T11:04:53;16.23;;;12.73;;
33327;SDS011;19692;52.998;9.116;2024-03-06T11:07:18;15.87;;;12.47;;
33327;SDS011;19692;52.998;9.116;2024-03-06T11:09:44;17.63;;;13.30;;
33327;SDS011;19692;52.998;9.116;2024-03-06T11:12:31;17.83;;;13.73;;
33327;SDS011;19692;52.998;9.116;2024-03-06T11:15:16;15.77;;;12.77;;
33327;SDS011;19692;52.998;9.116;2024-03-06T11:17:43;19.80;;;12.13;;
33327;SDS011;19692;52.998;9.116;2024-03-06T11:20:12;16.17;;;12.13;;
33327;SDS011;19692;52.998;9.116;2024-03-06T11:28:21;16.03;;;11.67;;
33327;SDS011;19692;52.998;9.116;2024-03-06T11:30:47;16.70;;;12.07;;
33327;SDS011;19692;52.998;9.116;2024-03-06T11:33:23;15.17;;;11.93;;
33327;SDS011;19692;52.998;9.116;2024-03-06T11:38:56;15.17;;;11.93;;
33327;SDS011;19692;52.998;9.116;2024-03-06T11:44:12;15.67;;;11.60;;
33327;SDS011;19692;52.998;9.116;2024-03-06T11:46:49;16.13;;;11.60;;
33327;SDS011;19692;52.998;9.116;2024-03-06T11:49:15;15.10;;;11.50;;
33327;SDS011;19692;52.998;9.116;2024-03-06T11:51:44;16.20;;;11.30;;
33327;SDS011;19692;52.998;9.116;2024-03-06T11:54:11;17.03;;;12.33;;
33327;SDS011;19692;52.998;9.116;2024-03-06T11:56:38;17.63;;;13.27;;
33327;SDS011;19692;52.998;9.116;2024-03-06T11:59:05;19.67;;;12.10;;
33327;SDS011;19692;52.998;9.116;2024-03-06T12:01:32;16.83;;;12.43;;
33327;SDS011;19692;52.998;9.116;2024-03-06T12:03:58;17.00;;;13.07;;
33327;SDS011;19692;52.998;9.116;2024-03-06T12:06:26;16.07;;;13.23;;
33327;SDS011;19692;52.998;9.116;2024-03-06T12:08:53;19.03;;;14.23;;
33327;SDS011;19692;52.998;9.116;2024-03-06T12:11:19;17.67;;;12.80;;
33327;SDS011;19692;52.998;9.116;2024-03-06T12:13:46;19.03;;;13.77;;
33327;SDS011;19692;52.998;9.116;2024-03-06T12:16:13;15.97;;;13.20;;
33327;SDS011;19692;52.998;9.116;2024-03-06T12:18:39;19.03;;;12.83;;
33327;SDS011;19692;52.998;9.116;2024-03-06T12:21:04;18.07;;;13.63;;
33327;SDS011;19692;52.998;9.116;2024-03-06T12:23:30;18.00;;;14.20;;
33327;SDS011;19692;52.998;9.116;2024-03-06T12:26:09;21.53;;;13.43;;
33327;SDS011;19692;52.998;9.116;2024-03-06T12:28:38;17.70;;;14.03;;
33327;SDS011;19692;52.998;9.116;2024-03-06T12:31:05;18.13;;;14.30;;
33327;SDS011;19692;52.998;9.116;2024-03-06T12:33:33;16.93;;;13.33;;
33327;SDS011;19692;52.998;9.116;2024-03-06T12:36:02;15.97;;;13.80;;
33327;SDS011;19692;52.998;9.116;2024-03-06T12:38:29;19.03;;;14.40;;
33327;SDS011;19692;52.998;9.116;2024-03-06T12:40:55;16.13;;;13.73;;
33327;SDS011;19692;52.998;9.116;2024-03-06T12:43:21;16.90;;;14.23;;
33327;SDS011;19692;52.998;9.116;2024-03-06T12:45:46;18.47;;;14.37;;
33327;SDS011;19692;52.998;9.116;2024-03-06T12:48:12;16.43;;;14.37;;
33327;SDS011;19692;52.998;9.116;2024-03-06T12:50:38;17.57;;;14.57;;
33327;SDS011;19692;52.998;9.116;2024-03-06T12:53:03;16.47;;;14.60;;
33327;SDS011;19692;52.998;9.116;2024-03-06T12:55:30;21.43;;;15.40;;
33327;SDS011;19692;52.998;9.116;2024-03-06T12:57:58;21.67;;;14.63;;
33327;SDS011;19692;52.998;9.116;2024-03-06T13:00:24;20.00;;;14.53;;
33327;SDS011;19692;52.998;9.116;2024-03-06T13:02:50;18.83;;;14.70;;
33327;SDS011;19692;52.998;9.116;2024-03-06T13:05:16;17.40;;;14.77;;
33327;SDS011;19692;52.998;9.116;2024-03-06T13:07:43;22.77;;;15.03;;
33327;SDS011;19692;52.998;9.116;2024-03-06T13:10:09;17.07;;;14.50;;
33327;SDS011;19692;52.998;9.116;2024-03-06T13:12:38;17.13;;;14.17;;
33327;SDS011;19692;52.998;9.116;2024-03-06T13:15:04;18.30;;;14.23;;
33327;SDS011;19692;52.998;9.116;2024-03-06T13:17:32;18.73;;;14.70;;
33327;SDS011;19692;52.998;9.116;2024-03-06T13:19:58;21.63;;;15.40;;
33327;SDS011;19692;52.998;9.116;2024-03-06T13:22:23;17.77;;;14.57;;
33327;SDS011;19692;52.998;9.116;2024-03-06T13:24:49;19.90;;;14.40;;
33327;SDS011;19692;52.998;9.116;2024-03-06T13:27:16;20.17;;;14.10;;
33327;SDS011;19692;52.998;9.116;2024-03-06T13:29:42;20.20;;;14.60;;
33327;SDS011;19692;52.998;9.116;2024-03-06T13:32:07;18.47;;;14.97;;
33327;SDS011;19692;52.998;9.116;2024-03-06T13:34:33;21.17;;;15.53;;
33327;SDS011;19692;52.998;9.116;2024-03-06T13:36:59;21.30;;;14.40;;
33327;SDS011;19692;52.998;9.116;2024-03-06T13:39:25;22.07;;;14.47;;
33327;SDS011;19692;52.998;9.116;2024-03-06T13:41:50;20.30;;;15.00;;
33327;SDS011;19692;52.998;9.116;2024-03-06T13:44:17;22.33;;;14.90;;
33327;SDS011;19692;52.998;9.116;2024-03-06T13:46:43;17.07;;;15.17;;
33327;SDS011;19692;52.998;9.116;2024-03-06T13:49:11;19.00;;;15.13;;
33327;SDS011;19692;52.998;9.116;2024-03-06T13:52:01;19.97;;;14.53;;
33327;SDS011;19692;52.998;9.116;2024-03-06T13:54:27;19.23;;;15.17;;
33327;SDS011;19692;52.998;9.116;2024-03-06T13:56:52;18.00;;;14.93;;
33327;SDS011;19692;52.998;9.116;2024-03-06T13:59:26;20.43;;;15.13;;
33327;SDS011;19692;52.998;9.116;2024-03-06T14:01:52;16.30;;;14.10;;
33327;SDS011;19692;52.998;9.116;2024-03-06T14:04:18;20.23;;;14.80;;
33327;SDS011;19692;52.998;9.116;2024-03-06T14:06:44;17.37;;;15.17;;
33327;SDS011;19692;52.998;9.116;2024-03-06T14:09:09;20.63;;;15.60;;
33327;SDS011;19692;52.998;9.116;2024-03-06T14:11:35;20.47;;;15.47;;
33327;SDS011;19692;52.998;9.116;2024-03-06T14:14:00;19.83;;;14.93;;
33327;SDS011;19692;52.998;9.116;2024-03-06T14:16:26;17.33;;;14.73;;
33327;SDS011;19692;52.998;9.116;2024-03-06T14:18:52;18.70;;;14.83;;
33327;SDS011;19692;52.998;9.116;2024-03-06T14:21:18;22.37;;;16.13;;
33327;SDS011;19692;52.998;9.116;2024-03-06T14:23:44;23.70;;;16.53;;
33327;SDS011;19692;52.998;9.116;2024-03-06T14:26:09;19.57;;;14.47;;
33327;SDS011;19692;52.998;9.116;2024-03-06T14:28:35;18.73;;;15.43;;
33327;SDS011;19692;52.998;9.116;2024-03-06T14:31:00;20.37;;;15.83;;